Seagoville, TX (75159)

4:53 PM CST on February 13, 2016 (GMT -0600)
Mesquite Texas | | Change Station
CLOSE
Current Station
Personal Weather Station
Location: Balch Springs, TX
Elevation: 522 ft
Nearby Weather Stations
Active Advisory: Flood Warning

Elev 522 ft 32.71 °N, 96.60 °W | Updated 1 second ago

Clear
Clear
66.2 °F
Feels Like 66.2 °F
N
3.6
Wind Variable Wind from ESE
Gusts 4.9 mph

Today
High -- | Low -- °F
--% Chance of Precip.
Yesterday
High -- | Low -- °F
Precip. -- in
Pressure 30.20 in
Visibility 10.0 miles
Clouds Clear
Dew Point 42 °F
Humidity 41%
Rainfall 0.00 in
Snow Depth Not available.
7:11 AM 6:09 PM
Waxing Crescent, 35% visible
METAR KHQZ 132250Z 14011G15KT 10SM CLR 18/03 A3020
Pressure 30.20 in
Visibility 10.0 miles
Clouds Clear
Dew Point 42 °F
Humidity 41%
Rainfall 0.00 in
Snow Depth Not available.
7:11 AM 6:09 PM
Waxing Crescent, 35% visible
METAR KHQZ 132250Z 14011G15KT 10SM CLR 18/03 A3020

10-Day Weather Forecast

Almanac

Astronomy

Feb. 13, 2016 Rise Set
Actual Time
Civil Twilight
Nautical Twilight
Astronomical Twilight
Moon
Length of Visible Light
Length of Day
Tomorrow will be .
, % of the Moon is Illuminated

Today's Extremes

State Highs State Lows

Community

WunderPhotos

Upload Photos

1,892,689 photos uploaded!

WunderBlog® & News

Nearby

Air Quality

  Air Quality AQ Index Pollutant
Not available.

Snow Depth

Station Depth Elevation

Earthquake Activity

City Distance Mag. Time & Date
Minimum magnitude displayed is 2.5.

Coastal Water Temperatures

Place Temperature

Stations

Nearby Weather Stations

Station Location Temp. Windchill Dew Point Humidity Wind Precip. Elev Updated Type
                   

Watches & Warnings

Flood Warning
Issued: 8:10 AM CST Feb. 13, 2016 – National Weather Service

The Flood Warning continues for
the Elm Fork Trinity River near Carrollton.
* At 0715 am Saturday the stage was 8.36 feet.
* Flood stage is 8 feet.
* Minor flooding is occurring and minor flooding is forecast.
* Forecast... the river will remain near 8 feet for the next several
days.
* At 8 feet, minor flooding will occur downstream from the gauge.


Lat... Lon 3300 9700 3287 9699 3287 9687 3300 9688